Time;durP1;ratioP1;P1;durP2;ratioP2;P2;SDS_P1;SDS_P2;PMS_P1;PMS_P2;Temp;Humidity;BMP_temperature;BMP_pressure;BME280_temperature;BME280_humidity;BME280_pressure;Samples;Min_cycle;Max_cycle;Signal;HPM_P1;HPM_P2
2021/03/18 00:02:16;;;;;;;7.87;5.83;;;;;;;3.49;84.61;99786.25;5029920;28;20477;-71
2021/03/18 00:04:41;;;;;;;8.03;5.97;;;;;;;3.59;83.52;99792.75;5013625;28;20527;-71
2021/03/18 00:07:07;;;;;;;8.23;5.87;;;;;;;3.67;83.13;99791.47;5013332;28;20026;-71
2021/03/18 00:09:32;;;;;;;6.73;5.50;;;;;;;3.51;83.22;99778.69;5013676;28;20018;-72
2021/03/18 00:11:58;;;;;;;9.63;6.20;;;;;;;3.54;83.56;99791.63;5012159;28;20017;-71
2021/03/18 00:14:24;;;;;;;7.30;5.53;;;;;;;3.62;83.07;99798.00;5014400;28;20021;-71
2021/03/18 00:16:50;;;;;;;7.93;5.47;;;;;;;3.60;82.93;99799.59;5014356;28;20034;-72
2021/03/18 00:19:16;;;;;;;8.70;6.10;;;;;;;3.65;83.58;99803.28;5013140;28;20033;-72
2021/03/18 00:21:41;;;;;;;7.63;5.50;;;;;;;3.57;83.59;99794.31;5012435;28;20037;-70
2021/03/18 00:24:08;;;;;;;7.90;5.70;;;;;;;3.55;83.58;99807.00;5012405;28;20121;-71
2021/03/18 00:26:34;;;;;;;7.57;5.40;;;;;;;3.52;83.24;99790.66;5014042;28;20055;-71
2021/03/18 00:29:02;;;;;;;7.03;5.43;;;;;;;3.66;83.09;99806.69;5013847;28;20026;-71
2021/03/18 00:31:32;;;;;;;7.03;5.43;;;;;;;3.64;83.10;99814.28;5014922;28;20080;-71
2021/03/18 00:33:58;;;;;;;8.07;5.70;;;;;;;3.71;82.55;99815.47;5027343;28;20033;-70
2021/03/18 00:36:25;;;;;;;8.03;5.73;;;;;;;3.73;82.15;99814.75;5014589;28;20029;-70
2021/03/18 00:38:53;;;;;;;8.07;5.43;;;;;;;3.69;82.74;99812.00;5016551;28;20386;-71
2021/03/18 00:41:19;;;;;;;8.67;6.20;;;;;;;3.65;83.27;99810.94;5013367;28;20481;-70
2021/03/18 00:43:45;;;;;;;7.30;5.67;;;;;;;3.64;82.59;99824.50;5014492;28;20064;-72
2021/03/18 00:46:11;;;;;;;7.28;5.30;;;;;;;3.59;82.26;99820.81;5012297;28;20024;-71
2021/03/18 00:48:37;;;;;;;8.03;6.03;;;;;;;3.56;82.65;99818.97;5012616;28;20021;-69
2021/03/18 00:51:12;;;;;;;6.63;5.25;;;;;;;3.63;82.36;99830.38;5012229;28;20030;-71
2021/03/18 00:53:43;;;;;;;8.47;5.63;;;;;;;3.69;82.06;99829.84;5026241;28;20037;-67
2021/03/18 00:56:14;;;;;;;9.32;5.53;;;;;;;3.48;81.59;99786.19;5023459;28;20029;-71
2021/03/18 00:58:44;;;;;;;9.13;5.90;;;;;;;3.66;82.09;99817.78;5014441;28;20478;-71
2021/03/18 01:01:11;;;;;;;8.43;6.15;;;;;;;3.59;82.05;99818.28;5014429;28;20026;-72
2021/03/18 01:03:40;;;;;;;6.97;5.40;;;;;;;3.40;81.68;99791.75;5028226;28;20033;-71
2021/03/18 01:06:08;;;;;;;7.47;5.77;;;;;;;3.60;82.42;99824.25;5018249;28;20036;-72
2021/03/18 01:08:35;;;;;;;7.63;5.63;;;;;;;3.72;82.15;99827.47;5026241;28;20113;-71
2021/03/18 01:11:14;;;;;;;7.67;6.23;;;;;;;3.70;81.94;99818.81;5012445;28;20038;-70
2021/03/18 01:13:51;;;;;;;8.47;6.37;;;;;;;3.58;82.07;99807.94;5012992;28;20025;-70
2021/03/18 01:16:22;;;;;;;8.07;6.13;;;;;;;3.64;82.60;99823.59;5015231;28;20014;-70
2021/03/18 01:18:57;;;;;;;8.17;6.40;;;;;;;3.69;82.68;99817.97;5012325;28;20038;-69
2021/03/18 01:21:26;;;;;;;7.47;5.73;;;;;;;3.56;82.06;99788.34;5013608;28;20152;-72
2021/03/18 01:23:52;;;;;;;7.43;5.82;;;;;;;3.69;81.89;99812.00;5012290;28;20021;-70
2021/03/18 01:26:17;;;;;;;8.57;6.07;;;;;;;3.62;82.00;99805.66;5022525;28;20551;-67
2021/03/18 01:28:43;;;;;;;7.83;6.07;;;;;;;3.59;81.97;99784.19;5011223;28;20503;-72
2021/03/18 01:31:10;;;;;;;7.93;5.93;;;;;;;3.39;81.97;99772.13;5016071;28;20473;-70
2021/03/18 01:33:36;;;;;;;7.90;5.77;;;;;;;3.60;81.57;99796.16;5012861;28;20054;-68
2021/03/18 01:36:04;;;;;;;8.80;5.67;;;;;;;3.65;82.36;99798.19;5012086;28;20029;-67
2021/03/18 01:38:30;;;;;;;7.83;6.10;;;;;;;3.78;82.22;99807.38;5015101;28;20108;-68
2021/03/18 01:40:57;;;;;;;7.57;5.80;;;;;;;3.78;81.48;99809.06;5014869;28;20064;-67
2021/03/18 01:43:26;;;;;;;7.47;5.83;;;;;;;3.72;82.06;99807.91;5012149;28;20112;-69
2021/03/18 01:45:52;;;;;;;7.72;5.90;;;;;;;3.71;81.94;99821.47;5011140;28;20026;-68
2021/03/18 01:48:20;;;;;;;7.77;5.67;;;;;;;3.70;81.85;99818.81;5011826;28;20038;-69
2021/03/18 01:50:46;;;;;;;9.43;6.37;;;;;;;3.66;82.36;99825.44;5030521;28;20048;-67
2021/03/18 01:53:13;;;;;;;8.63;6.13;;;;;;;3.75;82.59;99826.75;5016354;28;20525;-68
2021/03/18 01:55:41;;;;;;;8.70;6.00;;;;;;;3.71;82.01;99824.03;4979023;28;20515;-68
2021/03/18 01:58:09;;;;;;;9.70;6.32;;;;;;;3.67;81.98;99834.00;5013038;28;20133;-68
2021/03/18 02:00:36;;;;;;;9.37;5.83;;;;;;;3.60;81.94;99820.03;5012424;28;20040;-70
2021/03/18 02:03:03;;;;;;;8.17;5.80;;;;;;;3.64;81.99;99824.50;5011951;28;20037;-69
2021/03/18 02:05:30;;;;;;;7.90;6.17;;;;;;;3.42;81.47;99801.16;5012138;28;20488;-70
2021/03/18 02:07:56;;;;;;;7.30;5.80;;;;;;;3.43;81.57;99800.34;5011016;28;20026;-69
2021/03/18 02:10:32;;;;;;;8.17;5.80;;;;;;;3.57;81.65;99832.59;5010907;28;20036;-70
2021/03/18 02:12:59;;;;;;;7.70;6.27;;;;;;;3.67;82.00;99834.84;5012681;28;20072;-70
2021/03/18 02:15:28;;;;;;;8.30;6.77;;;;;;;3.67;81.67;99836.53;5012852;28;20029;-69
2021/03/18 02:18:04;;;;;;;8.50;6.53;;;;;;;3.79;81.72;99846.53;5013728;28;20496;-69
2021/03/18 02:20:46;;;;;;;8.43;6.33;;;;;;;3.81;80.76;99853.47;5011608;28;20048;-69
2021/03/18 02:23:40;;;;;;;7.97;6.20;;;;;;;3.78;81.35;99855.88;5011562;28;21396;-70
2021/03/18 02:26:14;;;;;;;8.63;6.40;;;;;;;3.94;81.02;99855.03;5015800;28;20037;-69
2021/03/18 02:28:57;;;;;;;8.00;6.45;;;;;;;4.04;81.07;99869.16;5014893;28;20026;-69
2021/03/18 02:32:08;;;;;;;8.45;6.22;;;;;;;4.04;80.32;99866.63;5031007;28;20405;-69
2021/03/18 02:35:14;;;;;;;8.25;6.22;;;;;;;3.74;79.77;99820.78;4996451;28;20049;-69
2021/03/18 02:37:45;;;;;;;8.07;6.60;;;;;;;4.01;80.11;99886.88;5014060;28;20474;-66
2021/03/18 02:40:15;;;;;;;8.40;6.40;;;;;;;3.89;80.74;99882.88;5015940;28;20477;-67
2021/03/18 02:42:44;;;;;;;8.50;7.07;;;;;;;3.86;80.72;99898.03;5016518;28;20421;-68
2021/03/18 02:45:11;;;;;;;7.43;6.03;;;;;;;3.90;80.88;99886.31;5017261;28;20026;-68
2021/03/18 02:47:40;;;;;;;7.53;6.07;;;;;;;3.74;80.65;99889.69;5015505;28;20065;-68
2021/03/18 02:50:08;;;;;;;8.70;6.83;;;;;;;3.68;81.53;99890.22;5014354;28;20041;-68
2021/03/18 02:52:34;;;;;;;7.93;6.30;;;;;;;3.63;81.62;99886.53;5013929;28;20054;-69
2021/03/18 02:55:03;;;;;;;9.43;6.97;;;;;;;3.54;81.46;99883.50;5016561;28;20034;-68
2021/03/18 02:57:31;;;;;;;9.40;6.97;;;;;;;3.61;81.82;99893.22;5018067;28;20029;-70
2021/03/18 02:59:59;;;;;;;8.23;6.50;;;;;;;3.49;81.98;99875.59;5016058;28;20087;-68
2021/03/18 03:02:28;;;;;;;9.10;7.00;;;;;;;3.81;81.87;99903.66;5019112;28;20025;-69
2021/03/18 03:04:56;;;;;;;7.65;6.20;;;;;;;3.79;81.37;99893.38;5014782;28;20041;-69
2021/03/18 03:07:24;;;;;;;23.98;16.88;;;;;;;3.82;81.18;99895.22;5014859;28;20056;-69
2021/03/18 03:09:51;;;;;;;64.43;58.03;;;;;;;3.94;81.67;99910.31;5013408;28;20037;-67
2021/03/18 03:12:20;;;;;;;10.43;8.03;;;;;;;3.81;81.99;99894.31;5027888;28;20029;-69
2021/03/18 03:14:47;;;;;;;9.07;7.30;;;;;;;3.90;80.65;99896.53;5025836;28;20037;-69
2021/03/18 03:17:16;;;;;;;12.03;9.30;;;;;;;3.91;81.66;99903.38;5029594;28;20440;-73
2021/03/18 03:19:44;;;;;;;11.07;8.88;;;;;;;4.00;81.61;99911.53;5032476;28;20052;-72
2021/03/18 03:22:10;;;;;;;11.02;8.82;;;;;;;4.01;82.59;99908.19;5033447;28;20030;-73
2021/03/18 03:24:37;;;;;;;12.07;8.50;;;;;;;4.10;81.89;99918.03;5033382;28;20025;-70
2021/03/18 03:27:05;;;;;;;9.63;7.88;;;;;;;4.16;81.84;99920.91;5033358;28;20030;-74
2021/03/18 03:29:31;;;;;;;11.55;9.20;;;;;;;3.87;81.87;99866.56;5033349;28;20018;-71
2021/03/18 03:31:57;;;;;;;10.45;8.27;;;;;;;4.19;80.73;99903.19;5025050;28;20034;-72
2021/03/18 03:34:23;;;;;;;10.85;8.73;;;;;;;4.19;80.68;99892.97;5014988;28;20026;-74
2021/03/18 03:36:48;;;;;;;10.43;8.70;;;;;;;4.34;80.91;99913.34;5030180;28;20042;-72
2021/03/18 03:39:15;;;;;;;11.77;8.52;;;;;;;4.29;80.17;99912.22;5014447;28;20108;-72
2021/03/18 03:41:40;;;;;;;10.70;8.18;;;;;;;4.29;79.87;99921.56;5014879;28;20080;-73
2021/03/18 03:44:06;;;;;;;9.60;7.93;;;;;;;4.29;80.42;99913.91;5019638;28;20022;-71
2021/03/18 03:46:33;;;;;;;10.98;6.97;;;;;;;4.37;80.44;99922.84;5026578;28;20048;-71
2021/03/18 03:48:58;;;;;;;9.88;7.70;;;;;;;4.36;79.92;99921.97;5014101;28;20037;-71
2021/03/18 03:51:32;;;;;;;9.35;7.40;;;;;;;4.35;79.45;99927.88;5013118;28;20038;-72
2021/03/18 03:54:02;;;;;;;8.85;7.45;;;;;;;4.31;79.67;99923.41;5016632;28;20055;-69
2021/03/18 03:56:35;;;;;;;10.52;7.88;;;;;;;4.27;79.97;99920.59;5032511;28;20029;-69
2021/03/18 03:59:14;;;;;;;10.13;7.40;;;;;;;4.08;79.58;99913.66;5032726;28;20527;-71
2021/03/18 04:01:56;;;;;;;9.57;7.63;;;;;;;4.14;80.63;99932.72;5030462;28;20457;-75
2021/03/18 04:04:25;;;;;;;9.83;8.20;;;;;;;4.08;81.47;99932.38;5032369;28;20029;-69
2021/03/18 04:06:58;;;;;;;10.82;8.45;;;;;;;4.17;81.70;99939.66;5032611;28;20088;-70
2021/03/18 04:09:25;;;;;;;11.00;7.78;;;;;;;4.21;81.98;99941.59;5032264;28;20408;-71
2021/03/18 04:11:52;;;;;;;12.75;9.52;;;;;;;4.26;81.94;99945.28;5032419;28;20029;-71
2021/03/18 04:14:23;;;;;;;12.25;10.00;;;;;;;4.22;82.01;99938.22;5032363;28;20030;-71
2021/03/18 04:16:50;;;;;;;11.52;9.65;;;;;;;4.16;82.08;99950.69;5032357;28;20028;-71
2021/03/18 04:19:20;;;;;;;13.00;9.77;;;;;;;4.23;82.17;99957.03;5032356;28;20040;-70
2021/03/18 04:21:47;;;;;;;;;;;;;;;4.25;81.83;99953.75;5032734;28;20025;-68
2021/03/18 04:24:14;;;;;;;10.45;8.30;;;;;;;4.24;81.18;99945.97;5027170;28;19912;-68
2021/03/18 04:26:41;;;;;;;11.13;9.32;;;;;;;4.29;80.80;99942.88;5032572;28;20121;-70
2021/03/18 04:29:08;;;;;;;12.05;9.95;;;;;;;4.29;80.37;99950.56;5032541;28;20022;-69
2021/03/18 04:31:38;;;;;;;12.15;9.95;;;;;;;4.36;81.25;99961.97;5030086;28;20025;-71
2021/03/18 04:34:05;;;;;;;18.10;11.63;;;;;;;4.38;81.13;99955.28;5013423;28;20472;-71
2021/03/18 04:36:32;;;;;;;20.90;16.17;;;;;;;4.49;81.33;99960.97;5015082;28;20030;-71
2021/03/18 04:38:59;;;;;;;33.92;30.85;;;;;;;4.50;81.22;99966.16;5013296;28;20053;-71
2021/03/18 04:41:25;;;;;;;15.75;14.15;;;;;;;4.53;80.69;99952.66;5015163;28;20088;-71
2021/03/18 04:43:52;;;;;;;12.50;10.55;;;;;;;4.60;80.15;99974.28;5013367;28;20025;-74
2021/03/18 04:46:18;;;;;;;13.90;11.15;;;;;;;4.61;80.38;99974.41;5013075;28;20025;-71
2021/03/18 04:48:44;;;;;;;13.05;10.57;;;;;;;4.63;80.88;99975.34;5011726;28;20485;-71
2021/03/18 04:51:10;;;;;;;13.23;11.68;;;;;;;4.60;80.83;99972.63;5011936;28;20083;-72
2021/03/18 04:53:36;;;;;;;19.55;15.63;;;;;;;4.67;80.53;99976.38;5014103;28;20030;-71
2021/03/18 04:56:09;;;;;;;16.42;11.55;;;;;;;4.77;80.13;99982.88;5013924;28;20033;-70
2021/03/18 04:58:39;;;;;;;12.20;9.63;;;;;;;4.69;79.91;99985.03;4996386;28;20041;-71
2021/03/18 05:01:07;;;;;;;11.35;9.32;;;;;;;4.58;80.47;99987.00;5023145;28;20041;-72
2021/03/18 05:03:34;;;;;;;12.18;9.30;;;;;;;4.52;80.56;99979.91;5025956;28;20026;-71
2021/03/18 05:06:01;;;;;;;11.77;9.02;;;;;;;4.48;80.42;99987.31;5023392;28;20041;-70
2021/03/18 05:08:28;;;;;;;10.90;8.73;;;;;;;4.51;80.84;99974.69;5030082;28;20087;-68
2021/03/18 05:10:53;;;;;;;10.25;8.63;;;;;;;4.27;80.71;99956.38;5024432;28;20413;-69
2021/03/18 05:13:20;;;;;;;12.95;8.50;;;;;;;4.37;80.85;99981.63;5027984;28;20033;-70
2021/03/18 05:15:47;;;;;;;11.30;8.90;;;;;;;4.27;80.87;99947.03;5031406;28;20021;-74
2021/03/18 05:18:15;;;;;;;12.07;9.70;;;;;;;4.52;81.06;99976.44;5031020;28;20037;-71
2021/03/18 05:20:43;;;;;;;12.73;9.75;;;;;;;4.59;81.19;99976.00;5025820;28;20037;-72
2021/03/18 05:23:11;;;;;;;11.80;10.00;;;;;;;4.53;80.36;99965.44;5025217;28;20025;-72
2021/03/18 05:25:37;;;;;;;12.40;10.05;;;;;;;4.70;80.39;99994.47;5030949;28;20021;-72
2021/03/18 05:28:03;;;;;;;11.82;9.32;;;;;;;4.68;79.88;99980.69;5031167;28;20382;-71
2021/03/18 05:30:30;;;;;;;13.70;10.98;;;;;;;4.75;79.60;99995.56;5031220;28;20032;-70
2021/03/18 05:33:00;;;;;;;13.18;10.50;;;;;;;4.63;79.66;99993.22;5031167;28;20032;-68
2021/03/18 05:35:27;;;;;;;13.63;9.77;;;;;;;4.66;80.31;100002.75;5030058;28;20028;-69
2021/03/18 05:37:53;;;;;;;10.43;9.00;;;;;;;4.37;81.13;99987.63;5031108;28;20495;-71
2021/03/18 05:40:19;;;;;;;11.32;9.18;;;;;;;4.47;82.39;100017.09;5031031;28;20025;-68
2021/03/18 05:42:47;;;;;;;14.23;11.43;;;;;;;4.53;82.21;100019.97;5030953;28;20022;-69
2021/03/18 05:45:13;;;;;;;14.77;12.10;;;;;;;4.63;81.89;100016.25;5030646;28;20030;-73
2021/03/18 05:47:39;;;;;;;15.25;11.50;;;;;;;4.57;82.40;100018.47;5030612;28;20026;-72
2021/03/18 05:50:08;;;;;;;14.93;12.60;;;;;;;4.63;82.50;100020.50;5030993;28;20087;-73
2021/03/18 05:52:35;;;;;;;17.23;11.98;;;;;;;4.53;82.38;100024.22;5017338;28;20038;-71
2021/03/18 05:55:03;;;;;;;14.68;11.05;;;;;;;4.61;82.17;100024.63;5030848;28;20032;-71
2021/03/18 05:57:29;;;;;;;14.88;11.85;;;;;;;4.56;82.47;100029.53;5030847;28;20485;-69
2021/03/18 05:59:56;;;;;;;20.98;16.23;;;;;;;4.69;82.28;100033.59;5033311;28;20562;-73
2021/03/18 06:02:21;;;;;;;19.30;14.15;;;;;;;4.73;81.69;100015.06;5034859;28;20107;-70
2021/03/18 06:04:47;;;;;;;23.20;16.50;;;;;;;4.86;80.44;100031.97;5034721;28;20072;-71
2021/03/18 06:07:13;;;;;;;28.40;19.92;;;;;;;4.97;80.75;100029.94;5034613;28;20037;-70
2021/03/18 06:09:38;;;;;;;16.48;13.02;;;;;;;5.06;81.24;100040.66;5035127;28;20029;-72
2021/03/18 06:12:04;;;;;;;14.43;11.82;;;;;;;5.09;80.23;100045.06;5034885;28;20025;-72
2021/03/18 06:14:33;;;;;;;15.23;12.35;;;;;;;5.18;79.86;100035.28;5034832;28;20027;-72
2021/03/18 06:16:59;;;;;;;15.82;12.43;;;;;;;5.20;79.49;100026.03;5034686;28;20025;-71
2021/03/18 06:22:48;;;;;;;11.25;9.07;;;;;;;5.04;78.50;100028.59;5136389;22;20115;-70
2021/03/18 06:25:22;;;;;;;10.43;8.43;;;;;;;5.02;77.66;100043.84;5054665;28;20033;-70
2021/03/18 06:27:49;;;;;;;11.25;8.82;;;;;;;5.00;77.45;100046.34;5037690;28;20026;-70
2021/03/18 06:30:15;;;;;;;10.60;7.82;;;;;;;4.91;76.67;100050.97;5040481;28;20021;-70
2021/03/18 06:32:41;;;;;;;11.52;8.82;;;;;;;4.81;78.33;100059.84;5035576;28;20527;-70
2021/03/18 06:35:09;;;;;;;11.43;9.00;;;;;;;4.97;77.07;100063.19;5054078;28;20040;-70
2021/03/18 06:37:42;;;;;;;11.18;8.50;;;;;;;5.02;76.07;100067.78;5035336;28;20120;-70
2021/03/18 06:40:13;;;;;;;10.85;7.82;;;;;;;4.78;76.16;100039.19;5086595;22;20132;-70
2021/03/18 06:42:56;;;;;;;10.30;8.05;;;;;;;4.98;76.46;100058.16;4995621;28;20042;-70
2021/03/18 06:45:22;;;;;;;10.25;8.25;;;;;;;5.04;75.85;100070.41;4992973;28;20600;-70
2021/03/18 06:47:53;;;;;;;12.15;9.20;;;;;;;5.16;76.99;100067.63;4994219;28;20033;-70
2021/03/18 06:50:30;;;;;;;11.98;8.77;;;;;;;5.26;76.69;100080.09;4994542;28;20033;-70
2021/03/18 06:52:56;;;;;;;10.32;8.25;;;;;;;5.22;75.05;100079.84;4994813;28;20055;-70
2021/03/18 06:55:32;;;;;;;10.57;7.68;;;;;;;5.10;75.86;100077.53;4994454;28;20057;-70
2021/03/18 06:58:21;;;;;;;10.52;8.45;;;;;;;5.22;76.18;100078.19;4994727;28;20061;-70
2021/03/18 07:01:04;;;;;;;12.25;8.73;;;;;;;5.24;75.04;100081.69;4994467;28;20053;-70
2021/03/18 07:03:32;;;;;;;11.65;9.48;;;;;;;5.30;75.81;100073.44;4994597;28;20051;-70
2021/03/18 07:05:59;;;;;;;13.65;8.88;;;;;;;5.51;75.07;100086.47;4994188;28;20106;-70
2021/03/18 07:08:33;;;;;;;12.52;9.50;;;;;;;5.35;74.73;100049.81;4994683;28;20034;-70
2021/03/18 07:11:01;;;;;;;11.30;9.07;;;;;;;5.70;74.74;100098.53;4994029;28;20024;-70
2021/03/18 07:13:29;;;;;;;11.75;9.48;;;;;;;5.83;74.24;100092.31;4994316;28;20420;-70
2021/03/18 07:15:57;;;;;;;13.80;10.20;;;;;;;5.87;74.90;100089.13;4994433;28;20042;-70
2021/03/18 07:18:24;;;;;;;12.80;9.65;;;;;;;5.88;74.96;100095.13;4994275;28;20038;-70
2021/03/18 07:21:07;;;;;;;10.48;8.27;;;;;;;5.51;73.27;100054.06;4994073;28;20038;-70
2021/03/18 07:23:33;;;;;;;13.10;9.38;;;;;;;5.91;75.44;100095.28;4998587;28;20034;-70
2021/03/18 07:25:58;;;;;;;16.38;13.48;;;;;;;6.05;74.85;100086.59;5003395;28;20061;-70
2021/03/18 07:28:24;;;;;;;12.05;9.98;;;;;;;6.22;73.47;100102.81;4993986;28;20042;-69
2021/03/18 07:30:51;;;;;;;11.95;8.52;;;;;;;6.11;72.62;100088.59;4993810;28;20453;-72
2021/03/18 07:33:19;;;;;;;12.88;10.18;;;;;;;6.20;73.75;100088.16;4993418;28;20109;-68
2021/03/18 07:35:45;;;;;;;13.20;10.40;;;;;;;6.07;72.29;100064.50;4993754;28;20401;-73
2021/03/18 07:38:10;;;;;;;13.32;10.07;;;;;;;6.34;73.73;100102.50;4993463;28;20113;-69
2021/03/18 07:40:36;;;;;;;17.13;11.55;;;;;;;6.51;74.93;100102.47;4975055;28;20080;-71
2021/03/18 07:43:02;;;;;;;14.43;11.27;;;;;;;6.51;74.78;100090.50;4993744;28;20052;-70
2021/03/18 07:45:30;;;;;;;13.40;10.13;;;;;;;6.51;71.42;100098.19;4993754;28;20041;-68
2021/03/18 07:47:57;;;;;;;12.05;9.70;;;;;;;6.31;71.05;100090.44;4993602;28;20030;-70
2021/03/18 07:50:31;;;;;;;14.23;10.48;;;;;;;6.50;71.59;100108.38;4993008;28;20041;-68
2021/03/18 07:52:58;;;;;;;14.98;10.13;;;;;;;6.62;71.17;100112.41;4991741;28;20522;-70
2021/03/18 07:55:25;;;;;;;14.00;10.60;;;;;;;6.37;71.74;100088.97;4992917;28;20057;-73
2021/03/18 07:57:51;;;;;;;13.57;10.70;;;;;;;6.54;72.17;100105.16;4993544;28;20103;-71
2021/03/18 08:00:24;;;;;;;13.20;10.65;;;;;;;6.63;71.66;100121.84;4993160;28;20034;-73
2021/03/18 08:02:51;;;;;;;16.42;12.25;;;;;;;6.41;71.06;100081.50;4992663;28;20533;-72
2021/03/18 08:05:39;;;;;;;13.38;11.23;;;;;;;6.79;72.31;100117.44;4993226;28;20037;-69
2021/03/18 08:08:06;;;;;;;13.52;10.15;;;;;;;6.79;71.49;100114.88;4991734;28;20026;-70
2021/03/18 08:10:32;;;;;;;13.02;9.52;;;;;;;6.63;70.41;100119.28;4989236;28;20035;-71
2021/03/18 08:12:59;;;;;;;17.50;11.75;;;;;;;6.66;71.81;100117.69;4998464;28;20505;-70
2021/03/18 08:15:26;;;;;;;13.95;10.60;;;;;;;6.80;71.13;100114.97;4989369;28;20056;-71
2021/03/18 08:17:53;;;;;;;27.73;18.73;;;;;;;6.73;68.65;100120.63;4989582;28;20038;-70
2021/03/18 08:20:41;;;;;;;23.83;18.05;;;;;;;6.69;68.05;100126.41;4992535;28;20519;-69
2021/03/18 08:23:22;;;;;;;17.40;12.43;;;;;;;6.90;70.65;100129.09;4988619;28;20026;-72
2021/03/18 08:25:48;;;;;;;14.65;10.80;;;;;;;6.89;68.95;100127.34;4992920;28;20021;-70
2021/03/18 08:28:41;;;;;;;12.70;10.52;;;;;;;6.99;69.24;100130.31;4992580;28;20023;-69
2021/03/18 08:31:18;;;;;;;14.48;10.57;;;;;;;6.58;67.95;100048.06;4989299;28;20106;-71
2021/03/18 08:33:47;;;;;;;11.57;9.02;;;;;;;6.96;69.01;100124.22;4988505;28;20038;-70
2021/03/18 08:36:34;;;;;;;12.30;9.25;;;;;;;6.92;66.96;100134.28;4992793;28;20119;-69
2021/03/18 08:39:07;;;;;;;13.65;10.50;;;;;;;6.37;68.80;100038.56;4992303;28;20121;-69
2021/03/18 08:41:36;;;;;;;11.23;8.80;;;;;;;6.85;67.82;100104.03;4992416;28;20121;-69
2021/03/18 08:44:25;;;;;;;11.93;9.35;;;;;;;6.86;67.25;100106.66;4992546;28;20034;-70
2021/03/18 08:46:58;;;;;;;11.20;8.18;;;;;;;7.08;67.45;100133.31;4992200;28;20092;-70
2021/03/18 08:49:25;;;;;;;10.60;8.10;;;;;;;7.06;67.69;100142.63;4992718;28;20489;-70
2021/03/18 08:51:52;;;;;;;10.82;7.50;;;;;;;6.94;68.08;100127.53;4992704;28;20023;-70
2021/03/18 08:54:36;;;;;;;17.50;13.75;;;;;;;6.96;68.87;100137.06;4992671;28;20035;-70
2021/03/18 08:57:11;;;;;;;24.75;17.98;;;;;;;6.86;70.56;100137.44;4992405;28;20076;-70
2021/03/18 08:59:38;;;;;;;12.85;9.93;;;;;;;7.05;69.60;100138.28;4992211;28;20030;-70
2021/03/18 09:02:06;;;;;;;18.45;14.38;;;;;;;7.13;69.71;100153.22;4991850;28;20084;-69
2021/03/18 09:04:40;;;;;;;17.88;13.88;;;;;;;7.10;67.54;100145.41;4992251;28;20026;-69
2021/03/18 09:07:10;;;;;;;10.75;7.65;;;;;;;7.12;67.58;100150.59;4992243;28;20097;-67
2021/03/18 09:09:37;;;;;;;11.95;8.25;;;;;;;6.89;68.66;100083.72;4990207;28;20030;-70
2021/03/18 09:12:03;;;;;;;12.05;9.82;;;;;;;7.35;66.68;100131.13;4990589;28;20601;-70
2021/03/18 09:14:29;;;;;;;10.88;8.65;;;;;;;7.60;66.19;100129.59;4988663;28;20455;-70
2021/03/18 09:17:14;;;;;;;8.70;7.07;;;;;;;7.87;63.79;100136.75;4991638;28;20113;-69
2021/03/18 09:19:46;;;;;;;7.82;4.78;;;;;;;7.92;63.39;100141.28;4989417;28;20465;-70
2021/03/18 09:22:23;;;;;;;5.68;4.47;;;;;;;7.89;63.66;100119.72;4991926;28;20023;-70
2021/03/18 09:24:49;;;;;;;5.15;3.92;;;;;;;7.91;62.05;100142.09;4991517;28;20501;-70
2021/03/18 09:27:17;;;;;;;5.32;3.92;;;;;;;7.92;61.04;100136.13;4991891;28;20065;-70
2021/03/18 09:29:43;;;;;;;7.60;5.25;;;;;;;7.74;63.70;100042.84;4991766;28;20062;-70
2021/03/18 09:32:11;;;;;;;8.73;6.45;;;;;;;8.43;61.00;100127.91;4991650;28;20455;-70
2021/03/18 09:34:45;;;;;;;10.00;7.85;;;;;;;8.52;62.78;100130.03;4990624;28;20033;-70
2021/03/18 09:37:12;;;;;;;8.00;5.95;;;;;;;8.58;62.00;100130.28;5006745;28;20031;-70
2021/03/18 09:39:46;;;;;;;7.43;6.03;;;;;;;8.47;59.93;100133.22;5007081;28;20031;-70
2021/03/18 09:42:15;;;;;;;8.93;6.00;;;;;;;8.41;58.39;100133.81;4983323;28;20058;-70
2021/03/18 09:44:42;;;;;;;5.53;3.78;;;;;;;8.56;58.78;100139.63;4991854;28;20023;-70
2021/03/18 09:47:09;;;;;;;5.40;3.88;;;;;;;8.45;58.70;100135.69;4986399;28;20057;-70
2021/03/18 09:49:37;;;;;;;13.23;9.15;;;;;;;8.31;59.03;100100.81;4991160;28;20117;-70
2021/03/18 09:52:06;;;;;;;7.18;5.40;;;;;;;8.61;60.69;100119.22;4991046;28;20109;-70
2021/03/18 09:54:32;;;;;;;8.35;5.53;;;;;;;8.73;59.61;100132.56;4991519;28;20478;-70
2021/03/18 09:57:06;;;;;;;7.47;5.38;;;;;;;8.64;57.47;100123.59;4991138;28;20048;-70
2021/03/18 09:59:32;;;;;;;5.57;3.75;;;;;;;8.78;57.66;100125.00;4991592;28;20034;-68
2021/03/18 10:01:58;;;;;;;5.88;4.47;;;;;;;8.53;59.03;100090.59;4990694;28;20037;-69
2021/03/18 10:04:25;;;;;;;5.95;4.45;;;;;;;8.76;58.65;100113.78;4991610;28;20065;-70
2021/03/18 10:06:54;;;;;;;11.70;8.20;;;;;;;8.93;57.48;100121.28;4986496;28;20035;-70
2021/03/18 10:09:28;;;;;;;10.32;6.97;;;;;;;8.82;56.68;100116.59;4990983;28;20030;-70
2021/03/18 10:11:53;;;;;;;10.13;7.60;;;;;;;9.00;56.31;100134.41;4991339;28;20041;-70
2021/03/18 10:14:21;;;;;;;12.05;8.27;;;;;;;8.67;55.90;100104.00;4990537;28;20038;-70
2021/03/18 10:16:51;;;;;;;18.80;14.98;;;;;;;8.61;57.54;100129.50;4989431;28;20022;-69
2021/03/18 10:19:18;;;;;;;12.73;11.00;;;;;;;8.82;58.11;100132.03;4991080;28;20041;-70
2021/03/18 10:21:45;;;;;;;26.02;23.27;;;;;;;8.71;57.66;100102.41;4990934;28;20489;-70
2021/03/18 10:24:14;;;;;;;14.75;11.63;;;;;;;8.80;57.81;100133.66;4991082;28;20126;-70
2021/03/18 10:26:41;;;;;;;8.75;6.75;;;;;;;8.86;57.06;100118.47;4990895;28;20033;-70
2021/03/18 10:29:08;;;;;;;8.23;6.13;;;;;;;8.82;59.10;100128.56;4990946;28;20041;-70
2021/03/18 10:31:36;;;;;;;11.85;9.13;;;;;;;8.87;56.58;100127.03;4991003;28;20034;-68
2021/03/18 10:34:02;;;;;;;8.73;6.45;;;;;;;8.92;59.69;100129.81;4990778;28;20552;-71
2021/03/18 10:36:41;;;;;;;8.25;6.53;;;;;;;8.99;58.18;100136.94;4990829;28;20069;-70
2021/03/18 10:39:12;;;;;;;7.68;6.50;;;;;;;9.09;56.86;100122.72;4991023;28;20035;-71
2021/03/18 10:41:52;;;;;;;7.97;6.25;;;;;;;9.00;57.39;100093.22;4985645;28;20453;-70
2021/03/18 10:44:19;;;;;;;7.70;6.47;;;;;;;9.22;55.38;100118.06;4990973;28;20030;-71
2021/03/18 10:46:46;;;;;;;8.23;6.30;;;;;;;9.35;55.43;100123.69;4994499;28;20037;-70
2021/03/18 10:49:13;;;;;;;7.43;6.45;;;;;;;9.37;55.91;100115.19;4994912;28;20391;-70
2021/03/18 10:51:47;;;;;;;7.65;6.53;;;;;;;9.32;55.12;100113.25;5009847;28;20386;-70
2021/03/18 10:54:20;;;;;;;9.05;6.18;;;;;;;9.41;54.65;100117.84;4987035;28;20394;-70
2021/03/18 10:56:48;;;;;;;8.77;7.85;;;;;;;9.19;56.67;100119.66;4994481;28;20109;-70
2021/03/18 10:59:15;;;;;;;7.07;5.88;;;;;;;9.46;55.40;100122.38;4994737;28;20026;-71
2021/03/18 11:01:42;;;;;;;6.32;4.85;;;;;;;9.45;54.14;100112.88;4994377;28;20022;-70
2021/03/18 11:04:10;;;;;;;7.15;5.78;;;;;;;9.53;57.88;100115.72;4994135;28;20018;-71
2021/03/18 11:06:49;;;;;;;6.03;4.85;;;;;;;9.35;55.88;100113.38;4994237;28;20027;-71
2021/03/18 11:09:15;;;;;;;7.28;5.47;;;;;;;9.37;57.28;100103.97;4994461;28;20030;-69
2021/03/18 11:11:51;;;;;;;6.03;4.53;;;;;;;9.09;56.63;100108.13;4993706;28;20023;-72
2021/03/18 11:14:17;;;;;;;9.57;7.82;;;;;;;9.32;55.37;100102.94;4993229;28;20023;-71
2021/03/18 11:16:42;;;;;;;6.78;5.18;;;;;;;9.47;53.46;100089.72;4993430;28;20505;-70
2021/03/18 11:19:12;;;;;;;7.93;5.68;;;;;;;9.43;54.47;100062.13;4993342;28;20402;-71
2021/03/18 11:21:40;;;;;;;7.55;4.45;;;;;;;9.67;53.23;100091.31;4993500;28;20035;-70
2021/03/18 11:24:11;;;;;;;6.93;5.10;;;;;;;9.86;54.29;100092.81;4993693;28;20034;-70
2021/03/18 11:26:43;;;;;;;7.15;5.72;;;;;;;9.88;54.06;100070.53;4993929;28;20081;-70
2021/03/18 11:29:15;;;;;;;7.18;4.95;;;;;;;9.55;52.33;100091.75;4993608;28;20030;-70
2021/03/18 11:31:44;;;;;;;10.20;8.35;;;;;;;9.70;52.76;100087.97;4991138;28;20047;-69
2021/03/18 11:34:18;;;;;;;7.85;6.85;;;;;;;9.63;53.13;100088.56;4975117;28;20042;-69
2021/03/18 11:36:49;;;;;;;7.80;6.20;;;;;;;9.89;52.35;100081.72;4980057;28;20502;-70
2021/03/18 11:39:15;;;;;;;5.65;4.40;;;;;;;10.13;51.78;100039.50;4991253;28;20552;-70
2021/03/18 11:41:41;;;;;;;14.27;8.00;;;;;;;10.60;52.56;100077.97;4990062;28;20512;-70
2021/03/18 11:44:07;;;;;;;17.60;10.63;;;;;;;10.65;50.22;100071.25;4989838;28;20034;-71
2021/03/18 11:46:33;;;;;;;15.52;12.27;;;;;;;10.39;50.43;100073.88;4990614;28;20038;-70